Time;durP1;ratioP1;P1;durP2;ratioP2;P2;SDS_P1;SDS_P2;PMS_P1;PMS_P2;Temp;Humidity;BMP_temperature;BMP_pressure;BME280_temperature;BME280_humidity;BME280_pressure;Samples;Min_cycle;Max_cycle;Signal;HPM_P1;HPM_P2
2022/06/18 00:02:30;;;;;;;4.67;3.03;;;;;;;;;;5033919;28;20199;-85
2022/06/18 00:05:35;;;;;;;3.23;2.93;;;;;;;;;;5046181;28;20587;-84
2022/06/18 00:08:40;;;;;;;2.77;2.57;;;;;;;;;;5045771;28;20662;-86
2022/06/18 00:15:18;;;;;;;3.20;2.83;;;;;;;;;;5045733;28;20220;-85
2022/06/18 00:18:22;;;;;;;3.60;2.90;;;;;;;;;;5035185;28;20197;-86
2022/06/18 00:21:26;;;;;;;4.10;3.00;;;;;;;;;;5035343;28;20655;-86
2022/06/18 00:24:30;;;;;;;3.27;2.63;;;;;;;;;;5034471;28;20212;-85
2022/06/18 00:27:34;;;;;;;3.60;2.83;;;;;;;;;;5037092;28;20635;-85
2022/06/18 00:30:39;;;;;;;3.77;2.70;;;;;;;;;;5026145;28;20177;-85
2022/06/18 00:33:43;;;;;;;5.23;3.03;;;;;;;;;;5025607;28;20738;-85
2022/06/18 00:36:48;;;;;;;4.60;3.00;;;;;;;;;;5060421;28;20187;-85
2022/06/18 00:39:51;;;;;;;4.27;3.03;;;;;;;;;;5053587;28;20678;-85
2022/06/18 00:43:01;;;;;;;4.40;3.17;;;;;;;;;;5065427;28;20183;-86
2022/06/18 00:46:17;;;;;;;4.87;3.57;;;;;;;;;;5065219;28;20180;-81
2022/06/18 00:49:33;;;;;;;5.43;3.30;;;;;;;;;;5076652;28;20191;-81
2022/06/18 00:52:51;;;;;;;11.57;3.23;;;;;;;;;;5053141;28;20535;-81
2022/06/18 00:56:02;;;;;;;7.33;3.33;;;;;;;;;;5065121;28;20180;-81
2022/06/18 00:59:22;;;;;;;7.03;3.30;;;;;;;;;;5076337;28;20191;-81
2022/06/18 01:02:39;;;;;;;4.97;3.13;;;;;;;;;;5065105;28;20179;-81
2022/06/18 01:05:44;;;;;;;6.30;3.00;;;;;;;;;;5013538;28;20185;-81
2022/06/18 01:08:58;;;;;;;5.03;3.17;;;;;;;;;;5035974;28;20541;-81
2022/06/18 01:12:03;;;;;;;5.53;3.20;;;;;;;;;;5024908;28;20181;-81
2022/06/18 01:15:11;;;;;;;4.93;3.50;;;;;;;;;;5036539;28;20213;-81
2022/06/18 01:18:20;;;;;;;3.83;3.20;;;;;;;;;;5051463;28;20536;-81
2022/06/18 01:21:50;;;;;;;5.20;3.37;;;;;;;;;;5064355;28;20187;-81
2022/06/18 01:24:56;;;;;;;3.90;3.27;;;;;;;;;;5064132;28;20693;-80
2022/06/18 01:28:00;;;;;;;5.33;3.43;;;;;;;;;;5064258;28;20180;-80
2022/06/18 01:31:09;;;;;;;6.50;3.47;;;;;;;;;;5048196;28;20180;-80
2022/06/18 01:34:15;;;;;;;4.73;3.40;;;;;;;;;;5043957;28;20220;-80
2022/06/18 01:37:22;;;;;;;5.93;3.50;;;;;;;;;;5055277;28;20180;-80
2022/06/18 01:40:40;;;;;;;4.33;3.07;;;;;;;;;;5033207;28;20200;-80
2022/06/18 01:43:48;;;;;;;7.50;3.20;;;;;;;;;;5044002;28;20220;-80
2022/06/18 01:46:58;;;;;;;4.20;3.33;;;;;;;;;;5032645;28;20524;-80
2022/06/18 01:50:10;;;;;;;4.90;3.10;;;;;;;;;;5044594;28;20184;-79
2022/06/18 01:53:22;;;;;;;3.90;3.20;;;;;;;;;;5043777;28;20181;-80
2022/06/18 01:56:34;;;;;;;5.07;3.43;;;;;;;;;;5044311;28;20184;-80
2022/06/18 01:59:51;;;;;;;4.23;3.20;;;;;;;;;;5055113;28;20220;-80
2022/06/18 02:03:00;;;;;;;5.43;3.03;;;;;;;;;;5044135;28;20184;-80
2022/06/18 02:06:05;;;;;;;4.50;3.30;;;;;;;;;;5092137;22;20235;-89
2022/06/18 02:09:26;;;;;;;3.73;3.37;;;;;;;;;;5051077;28;20179;-87
2022/06/18 02:12:33;;;;;;;5.57;3.37;;;;;;;;;;5062502;28;20187;-88
2022/06/18 02:15:42;;;;;;;5.43;3.30;;;;;;;;;;5051325;28;20211;-88
2022/06/18 02:18:49;;;;;;;7.67;3.37;;;;;;;;;;5051140;28;20523;-88
2022/06/18 02:21:58;;;;;;;4.47;3.30;;;;;;;;;;5062486;28;20504;-88
2022/06/18 02:25:02;;;;;;;4.63;3.20;;;;;;;;;;5062065;28;20214;-87
2022/06/18 02:28:15;;;;;;;6.30;3.50;;;;;;;;;;5050538;28;20195;-88
2022/06/18 02:31:26;;;;;;;3.93;2.90;;;;;;;;;;5050563;28;20191;-88
2022/06/18 02:34:31;;;;;;;3.87;3.47;;;;;;;;;;5074211;28;20215;-88
2022/06/18 02:37:35;;;;;;;3.77;3.43;;;;;;;;;;5050100;28;20539;-88
2022/06/18 02:40:39;;;;;;;4.27;3.73;;;;;;;;;;5050472;28;20681;-88
2022/06/18 02:43:45;;;;;;;4.97;3.33;;;;;;;;;;5084886;28;20209;-88
2022/06/18 02:46:49;;;;;;;3.63;3.33;;;;;;;;;;5061659;28;20641;-88
2022/06/18 02:50:03;;;;;;;3.63;3.33;;;;;;;;;;5043574;28;20196;-88
2022/06/18 02:53:10;;;;;;;4.23;2.87;;;;;;;;;;5030499;28;20188;-89
2022/06/18 02:56:15;;;;;;;3.53;3.23;;;;;;;;;;5030384;28;20227;-88
2022/06/18 02:59:19;;;;;;;4.30;3.67;;;;;;;;;;5030328;28;20180;-88
2022/06/18 03:02:24;;;;;;;3.63;3.10;;;;;;;;;;5052916;28;20195;-88
2022/06/18 03:05:28;;;;;;;3.50;3.00;;;;;;;;;;5041329;28;20227;-88
2022/06/18 03:08:32;;;;;;;3.83;2.87;;;;;;;;;;5041420;28;20528;-86
2022/06/18 03:15:00;;;;;;;4.37;3.63;;;;;;;;;;5041713;28;20223;-85
2022/06/18 03:18:06;;;;;;;3.73;2.90;;;;;;;;;;5047894;28;20187;-88
2022/06/18 03:21:17;;;;;;;4.30;3.20;;;;;;;;;;5061339;28;20203;-86
2022/06/18 03:24:21;;;;;;;3.20;2.80;;;;;;;;;;5050636;28;20219;-88
2022/06/18 03:27:26;;;;;;;3.50;3.20;;;;;;;;;;5061270;28;20203;-88
2022/06/18 03:30:35;;;;;;;5.93;3.43;;;;;;;;;;5073303;28;20195;-86
2022/06/18 03:33:41;;;;;;;3.53;3.20;;;;;;;;;;5052602;28;20179;-85
2022/06/18 03:36:45;;;;;;;3.77;3.07;;;;;;;;;;5066144;28;20180;-86
2022/06/18 03:39:49;;;;;;;3.57;3.27;;;;;;;;;;5053658;28;20175;-85
2022/06/18 03:42:53;;;;;;;4.73;3.00;;;;;;;;;;5065196;28;20183;-85
2022/06/18 03:46:01;;;;;;;4.23;3.03;;;;;;;;;;5065258;28;20530;-88
2022/06/18 03:49:07;;;;;;;3.33;3.03;;;;;;;;;;5050788;28;20183;-88
2022/06/18 03:52:14;;;;;;;3.57;3.00;;;;;;;;;;5044673;28;20181;-87
2022/06/18 03:55:18;;;;;;;4.10;2.77;;;;;;;;;;5044435;28;20223;-87
2022/06/18 03:58:23;;;;;;;2.83;2.63;;;;;;;;;;5047939;28;20199;-84
2022/06/18 04:01:30;;;;;;;3.20;2.90;;;;;;;;;;5065056;28;20677;-88
2022/06/18 04:04:39;;;;;;;3.40;3.10;;;;;;;;;;5076342;28;20223;-88
2022/06/18 04:07:43;;;;;;;3.07;2.53;;;;;;;;;;5053976;28;20179;-84
2022/06/18 04:10:48;;;;;;;6.03;2.70;;;;;;;;;;5064746;28;20175;-85
2022/06/18 04:13:54;;;;;;;6.07;2.80;;;;;;;;;;5064593;28;20171;-84
2022/06/18 04:17:17;;;;;;;2.67;2.47;;;;;;;;;;5065045;28;20183;-87
2022/06/18 04:20:33;;;;;;;3.43;3.10;;;;;;;;;;5044064;28;20212;-84
2022/06/18 04:23:39;;;;;;;3.43;2.60;;;;;;;;;;5033634;28;20555;-88
2022/06/18 04:26:44;;;;;;;5.27;2.83;;;;;;;;;;5034502;28;20623;-84
2022/06/18 04:29:48;;;;;;;5.13;2.60;;;;;;;;;;5044229;28;20200;-86
2022/06/18 04:32:54;;;;;;;3.00;2.70;;;;;;;;;;5033288;28;20200;-84
2022/06/18 04:35:58;;;;;;;6.17;3.20;;;;;;;;;;5043211;28;20219;-84
2022/06/18 04:39:05;;;;;;;3.27;2.97;;;;;;;;;;5043093;28;20591;-84
2022/06/18 04:42:38;;;;;;;3.47;2.93;;;;;;;;;;4998763;28;20204;-84
2022/06/18 04:45:43;;;;;;;6.43;3.27;;;;;;;;;;5042617;28;20216;-84
2022/06/18 04:48:53;;;;;;;3.70;3.23;;;;;;;;;;5043627;28;20196;-84
2022/06/18 04:51:57;;;;;;;4.13;3.07;;;;;;;;;;5031551;28;20168;-84
2022/06/18 04:55:14;;;;;;;3.30;3.00;;;;;;;;;;5042501;28;20239;-84
2022/06/18 04:58:20;;;;;;;4.30;3.03;;;;;;;;;;5054544;28;20176;-84
2022/06/18 05:01:31;;;;;;;4.67;3.17;;;;;;;;;;5032227;28;20212;-84
2022/06/18 05:04:47;;;;;;;3.13;2.80;;;;;;;;;;5041837;28;20220;-84
2022/06/18 05:08:10;;;;;;;6.00;3.23;;;;;;;;;;5033686;28;20177;-84
2022/06/18 05:11:44;;;;;;;4.27;3.40;;;;;;;;;;5010213;28;20623;-84
2022/06/18 05:14:53;;;;;;;11.20;3.53;;;;;;;;;;5042119;28;20261;-84
2022/06/18 05:17:58;;;;;;;7.83;3.37;;;;;;;;;;5042421;28;20176;-84
2022/06/18 05:21:03;;;;;;;4.90;3.10;;;;;;;;;;5030926;28;20224;-84
2022/06/18 05:24:07;;;;;;;8.00;3.33;;;;;;;;;;5030090;28;20203;-84
2022/06/18 05:27:22;;;;;;;6.07;3.43;;;;;;;;;;5035453;28;20602;-84
2022/06/18 05:30:28;;;;;;;5.47;3.30;;;;;;;;;;5045164;28;20189;-84
2022/06/18 05:33:36;;;;;;;7.13;3.73;;;;;;;;;;5030562;28;20192;-84
2022/06/18 05:36:41;;;;;;;4.40;3.27;;;;;;;;;;5041499;28;20192;-84
2022/06/18 05:39:45;;;;;;;7.10;3.40;;;;;;;;;;5041266;28;20214;-84
2022/06/18 05:42:49;;;;;;;6.10;4.20;;;;;;;;;;5030081;28;20180;-84
2022/06/18 05:45:53;;;;;;;4.00;3.60;;;;;;;;;;5042162;28;20216;-84
2022/06/18 05:48:57;;;;;;;3.70;3.40;;;;;;;;;;5029252;28;20190;-84
2022/06/18 05:52:01;;;;;;;5.93;3.77;;;;;;;;;;5043906;28;20184;-84
2022/06/18 05:55:06;;;;;;;4.17;3.40;;;;;;;;;;5033185;28;20219;-84
2022/06/18 05:58:20;;;;;;;3.67;3.37;;;;;;;;;;5040667;28;20196;-83
2022/06/18 06:01:27;;;;;;;4.10;3.33;;;;;;;;;;5044974;28;20659;-82
2022/06/18 06:04:31;;;;;;;5.43;2.90;;;;;;;;;;5044733;28;20232;-84
2022/06/18 06:07:36;;;;;;;7.10;3.40;;;;;;;;;;5055563;28;20179;-82
2022/06/18 06:14:05;;;;;;;4.37;3.03;;;;;;;;;;5044360;28;20180;-81
2022/06/18 06:17:14;;;;;;;3.10;2.80;;;;;;;;;;5044446;28;20176;-83
2022/06/18 06:20:28;;;;;;;4.70;2.80;;;;;;;;;;5058187;28;20192;-82
2022/06/18 06:23:32;;;;;;;4.40;2.87;;;;;;;;;;5050043;28;20187;-84
2022/06/18 06:26:36;;;;;;;3.77;2.83;;;;;;;;;;5055767;28;20184;-83
2022/06/18 06:29:41;;;;;;;3.13;2.40;;;;;;;;;;5056313;28;20188;-82
2022/06/18 06:32:45;;;;;;;4.13;2.90;;;;;;;;;;5055430;28;20192;-82
2022/06/18 06:35:51;;;;;;;4.33;2.30;;;;;;;;;;5055335;28;20575;-82
2022/06/18 06:38:55;;;;;;;3.47;2.30;;;;;;;;;;5071201;28;20673;-82
2022/06/18 06:41:59;;;;;;;4.53;2.20;;;;;;;;;;5063326;28;20207;-81
2022/06/18 06:45:05;;;;;;;4.37;2.20;;;;;;;;;;5086496;28;20214;-82
2022/06/18 06:48:09;;;;;;;2.70;2.03;;;;;;;;;;5032302;28;20180;-81
2022/06/18 06:51:20;;;;;;;2.67;2.40;;;;;;;;;;5061570;28;20195;-86
2022/06/18 06:54:24;;;;;;;2.60;2.40;;;;;;;;;;5061504;28;20206;-86
2022/06/18 06:57:28;;;;;;;5.40;2.40;;;;;;;;;;5061635;28;20183;-86
2022/06/18 07:00:38;;;;;;;4.63;2.33;;;;;;;;;;5061478;28;20199;-86
2022/06/18 07:03:42;;;;;;;5.57;2.13;;;;;;;;;;5061380;28;20199;-87
2022/06/18 07:06:45;;;;;;;2.60;2.40;;;;;;;;;;5072707;28;20176;-88
2022/06/18 07:09:49;;;;;;;4.33;2.27;;;;;;;;;;5047767;28;20207;-86
2022/06/18 07:12:54;;;;;;;5.33;2.40;;;;;;;;;;5061291;28;20191;-86
2022/06/18 07:15:58;;;;;;;3.43;2.20;;;;;;;;;;5057864;28;20224;-85
2022/06/18 07:19:02;;;;;;;4.47;2.07;;;;;;;;;;5041481;28;20184;-85
2022/06/18 07:22:10;;;;;;;6.03;2.40;;;;;;;;;;5029900;28;20212;-86
2022/06/18 07:25:15;;;;;;;2.40;2.03;;;;;;;;;;5041651;28;20225;-85
2022/06/18 07:28:20;;;;;;;3.10;1.93;;;;;;;;;;5049243;28;20194;-85
2022/06/18 07:31:32;;;;;;;3.73;2.10;;;;;;;;;;5052451;28;20528;-85
2022/06/18 07:34:37;;;;;;;2.70;1.97;;;;;;;;;;5064447;28;20217;-85
2022/06/18 07:37:41;;;;;;;1.93;1.70;;;;;;;;;;5041097;28;20202;-85
2022/06/18 07:40:49;;;;;;;3.25;1.80;;;;;;;;;;5054698;28;20189;-85
2022/06/18 07:43:56;;;;;;;1.90;1.80;;;;;;;;;;5071795;28;20519;-85
2022/06/18 07:47:03;;;;;;;2.58;1.95;;;;;;;;;;5060135;28;20550;-85
2022/06/18 07:50:07;;;;;;;1.80;1.65;;;;;;;;;;5045947;28;20197;-85
2022/06/18 07:53:20;;;;;;;9.60;2.70;;;;;;;;;;5044296;28;20190;-85
2022/06/18 07:56:24;;;;;;;4.00;2.00;;;;;;;;;;5050247;28;20198;-85
2022/06/18 07:59:28;;;;;;;5.82;1.65;;;;;;;;;;5040758;28;20661;-86
2022/06/18 08:02:37;;;;;;;1.88;1.70;;;;;;;;;;5043623;28;20215;-86
2022/06/18 08:05:42;;;;;;;2.60;1.33;;;;;;;;;;5097701;22;20234;-85
2022/06/18 08:08:46;;;;;;;10.88;3.15;;;;;;;;;;5068412;28;20537;-85
2022/06/18 08:11:50;;;;;;;7.10;1.48;;;;;;;;;;5076198;28;20186;-85
2022/06/18 08:14:55;;;;;;;8.52;1.60;;;;;;;;;;5062946;28;20569;-85
2022/06/18 08:17:59;;;;;;;2.22;1.67;;;;;;;;;;5061219;28;20180;-85
2022/06/18 08:21:09;;;;;;;3.13;1.40;;;;;;;;;;5092346;28;20179;-85
2022/06/18 08:24:17;;;;;;;6.03;1.40;;;;;;;;;;5082597;28;20538;-85
2022/06/18 08:27:21;;;;;;;2.30;1.67;;;;;;;;;;5065274;28;20180;-85
2022/06/18 08:30:26;;;;;;;1.45;1.30;;;;;;;;;;5052539;28;20187;-84
2022/06/18 08:33:30;;;;;;;3.35;1.45;;;;;;;;;;5067607;28;20649;-84
2022/06/18 08:36:36;;;;;;;3.88;1.40;;;;;;;;;;5032720;28;20220;-84
2022/06/18 08:39:40;;;;;;;2.00;1.20;;;;;;;;;;5069858;28;20191;-85
2022/06/18 08:42:57;;;;;;;4.63;1.40;;;;;;;;;;5066597;28;20218;-88
2022/06/18 08:46:32;;;;;;;2.28;1.42;;;;;;;;;;5055395;28;20207;-85
2022/06/18 08:49:58;;;;;;;1.70;1.20;;;;;;;;;;5086738;28;20674;-84
2022/06/18 08:53:20;;;;;;;2.95;1.15;;;;;;;;;;5065674;28;20187;-85
2022/06/18 08:56:24;;;;;;;2.15;1.05;;;;;;;;;;5038620;28;20213;-88
2022/06/18 09:00:11;;;;;;;3.95;1.00;;;;;;;;;;5068992;28;20196;-85
2022/06/18 09:03:51;;;;;;;2.45;0.98;;;;;;;;;;5092575;28;20207;-85
2022/06/18 09:07:12;;;;;;;1.40;1.20;;;;;;;;;;5081939;28;20215;-84
2022/06/18 09:10:33;;;;;;;2.65;1.00;;;;;;;;;;5057274;28;20181;-85
2022/06/18 09:13:43;;;;;;;1.88;1.20;;;;;;;;;;5076403;28;20191;-89
2022/06/18 09:17:08;;;;;;;2.38;1.10;;;;;;;;;;5055623;28;20224;-85
2022/06/18 09:21:00;;;;;;;2.75;1.08;;;;;;;;;;5071926;28;20188;-85
2022/06/18 09:24:06;;;;;;;2.70;1.55;;;;;;;;;;5038676;28;20670;-85
2022/06/18 09:27:25;;;;;;;4.25;1.33;;;;;;;;;;5061036;28;20190;-89
2022/06/18 09:30:36;;;;;;;3.08;1.20;;;;;;;;;;5071613;28;20183;-84
2022/06/18 09:33:45;;;;;;;2.63;1.30;;;;;;;;;;5065792;28;20187;-85
2022/06/18 09:36:57;;;;;;;3.63;1.27;;;;;;;;;;5054209;28;20220;-85
2022/06/18 09:40:03;;;;;;;7.72;1.45;;;;;;;;;;5047751;28;20187;-86
2022/06/18 09:43:21;;;;;;;4.05;1.27;;;;;;;;;;5079785;28;20207;-86
2022/06/18 09:46:30;;;;;;;3.00;1.40;;;;;;;;;;5068734;28;20223;-86
2022/06/18 09:49:36;;;;;;;1.27;1.10;;;;;;;;;;5070964;28;20191;-86
2022/06/18 09:52:44;;;;;;;1.65;1.00;;;;;;;;;;5059320;28;20551;-86
2022/06/18 09:55:53;;;;;;;4.13;1.60;;;;;;;;;;5055830;28;20213;-86
2022/06/18 09:59:03;;;;;;;3.08;1.38;;;;;;;;;;5064707;28;20184;-87
2022/06/18 10:02:21;;;;;;;7.57;1.65;;;;;;;;;;5036795;28;20212;-86
2022/06/18 10:09:10;;;;;;;5.03;1.40;;;;;;;;;;5078140;28;20191;-86
2022/06/18 10:12:22;;;;;;;4.57;1.35;;;;;;;;;;5060503;28;20211;-85
2022/06/18 10:15:28;;;;;;;3.78;1.40;;;;;;;;;;5062586;28;20224;-85
2022/06/18 10:18:47;;;;;;;3.30;1.40;;;;;;;;;;5042652;28;20184;-85
2022/06/18 10:21:59;;;;;;;4.60;1.33;;;;;;;;;;5054369;28;20196;-85
2022/06/18 10:25:29;;;;;;;1.70;1.20;;;;;;;;;;5053485;28;20687;-86
2022/06/18 10:28:57;;;;;;;1.55;1.35;;;;;;;;;;5053412;28;20195;-88
2022/06/18 10:32:37;;;;;;;2.10;1.23;;;;;;;;;;5034250;28;20695;-87
2022/06/18 10:35:52;;;;;;;3.75;1.20;;;;;;;;;;5063838;28;20566;-86
2022/06/18 10:39:20;;;;;;;3.72;1.40;;;;;;;;;;5073876;28;20658;-85
2022/06/18 10:42:39;;;;;;;2.05;1.20;;;;;;;;;;5061254;28;20195;-86
2022/06/18 10:46:01;;;;;;;1.60;1.33;;;;;;;;;;5072874;28;20220;-86
2022/06/18 10:49:06;;;;;;;1.67;1.30;;;;;;;;;;5078346;28;20191;-86
2022/06/18 10:52:25;;;;;;;7.07;1.50;;;;;;;;;;5053335;28;20207;-86
2022/06/18 10:55:30;;;;;;;1.50;1.40;;;;;;;;;;5030203;28;20678;-85
2022/06/18 10:58:34;;;;;;;2.33;1.23;;;;;;;;;;5053154;28;20180;-86
2022/06/18 11:01:46;;;;;;;1.60;1.17;;;;;;;;;;5038869;28;20536;-85
2022/06/18 11:04:54;;;;;;;1.40;1.30;;;;;;;;;;5074831;28;20657;-86
2022/06/18 11:08:03;;;;;;;5.57;1.20;;;;;;;;;;5066621;28;20187;-86
2022/06/18 11:11:13;;;;;;;4.00;1.50;;;;;;;;;;5061425;28;20183;-86
2022/06/18 11:14:19;;;;;;;1.58;1.10;;;;;;;;;;5061581;28;20275;-86
2022/06/18 11:17:41;;;;;;;3.67;1.25;;;;;;;;;;5084158;28;20199;-87
2022/06/18 11:20:59;;;;;;;4.20;1.35;;;;;;;;;;5093195;28;20175;-86
2022/06/18 11:24:15;;;;;;;2.00;1.30;;;;;;;;;;5080780;28;20179;-85
2022/06/18 11:27:20;;;;;;;1.48;1.25;;;;;;;;;;5065396;28;20187;-85
2022/06/18 11:30:31;;;;;;;3.38;1.30;;;;;;;;;;5067945;28;20191;-86
2022/06/18 11:33:53;;;;;;;1.50;1.40;;;;;;;;;;5029410;28;20224;-86
2022/06/18 11:36:59;;;;;;;1.85;1.30;;;;;;;;;;5073964;28;20212;-85
2022/06/18 11:40:26;;;;;;;1.77;1.20;;;;;;;;;;5052103;28;20196;-85
2022/06/18 11:43:33;;;;;;;2.67;1.20;;;;;;;;;;5049680;28;20176;-85
2022/06/18 11:46:58;;;;;;;2.65;1.30;;;;;;;;;;5072256;28;20215;-85
2022/06/18 11:50:23;;;;;;;2.55;1.25;;;;;;;;;;5049943;28;20176;-87
2022/06/18 11:53:40;;;;;;;3.53;1.35;;;;;;;;;;5074649;28;20219;-86
2022/06/18 11:56:47;;;;;;;2.10;1.38;;;;;;;;;;5083122;28;20223;-86
2022/06/18 12:00:10;;;;;;;3.35;1.30;;;;;;;;;;5073287;28;20179;-86
2022/06/18 12:03:33;;;;;;;2.75;1.40;;;;;;;;;;5083741;28;20187;-86
2022/06/18 12:06:42;;;;;;;2.20;1.50;;;;;;;;;;5069376;28;20235;-86
2022/06/18 12:09:46;;;;;;;4.00;1.42;;;;;;;;;;5084672;28;20523;-86
2022/06/18 12:13:23;;;;;;;4.25;1.60;;;;;;;;;;5073706;28;20211;-86
2022/06/18 12:16:47;;;;;;;6.55;1.77;;;;;;;;;;5060444;28;20220;-86
2022/06/18 12:20:06;;;;;;;2.38;1.40;;;;;;;;;;5058541;28;20177;-86
2022/06/18 12:23:19;;;;;;;3.88;1.30;;;;;;;;;;5058153;28;20181;-86
2022/06/18 12:26:39;;;;;;;4.68;1.73;;;;;;;;;;5083761;28;20219;-86
2022/06/18 12:29:56;;;;;;;5.57;1.25;;;;;;;;;;5058455;28;20187;-86
2022/06/18 12:33:04;;;;;;;3.90;1.30;;;;;;;;;;5074714;28;20211;-86
2022/06/18 12:36:19;;;;;;;3.55;1.50;;;;;;;;;;5081710;28;20216;-86
2022/06/18 12:39:56;;;;;;;4.32;1.48;;;;;;;;;;5069692;28;20187;-87
2022/06/18 12:43:21;;;;;;;6.57;1.65;;;;;;;;;;5067466;28;20534;-86
2022/06/18 12:46:46;;;;;;;7.70;1.60;;;;;;;;;;5065360;28;20678;-86
2022/06/18 12:50:21;;;;;;;7.88;1.75;;;;;;;;;;5061192;28;20187;-84
2022/06/18 12:53:39;;;;;;;7.00;1.85;;;;;;;;;;5069146;28;20211;-87
2022/06/18 12:56:48;;;;;;;3.45;1.50;;;;;;;;;;5065515;28;20557;-86
2022/06/18 13:00:14;;;;;;;6.43;1.80;;;;;;;;;;5044195;28;20185;-86
2022/06/18 13:03:42;;;;;;;3.50;1.30;;;;;;;;;;5032326;28;20172;-86
2022/06/18 13:06:55;;;;;;;3.33;1.58;;;;;;;;;;5039642;28;20222;-86
2022/06/18 13:10:17;;;;;;;4.18;1.40;;;;;;;;;;5065277;28;20183;-87
2022/06/18 13:13:38;;;;;;;4.05;1.58;;;;;;;;;;5075206;28;20220;-87
2022/06/18 13:16:51;;;;;;;6.32;1.63;;;;;;;;;;5048460;28;20219;-87
2022/06/18 13:20:14;;;;;;;4.65;1.60;;;;;;;;;;5062919;28;20180;-86
2022/06/18 13:30:34;;;;;;;3.78;1.58;;;;;;;;;;5074283;28;20191;-89
2022/06/18 13:33:50;;;;;;;4.22;1.63;;;;;;;;;;5065752;28;20211;-86
2022/06/18 13:37:15;;;;;;;6.35;2.15;;;;;;;;;;5063519;28;20211;-87
2022/06/18 13:40:44;;;;;;;6.68;1.35;;;;;;;;;;5073668;28;20188;-87
2022/06/18 13:43:56;;;;;;;7.10;2.10;;;;;;;;;;5062526;28;20638;-87
2022/06/18 13:47:23;;;;;;;6.05;1.80;;;;;;;;;;5052660;28;20211;-87
2022/06/18 13:50:36;;;;;;;5.57;1.90;;;;;;;;;;5075719;28;20630;-87
2022/06/18 13:53:44;;;;;;;4.47;1.65;;;;;;;;;;5073639;28;20203;-87
2022/06/18 13:57:01;;;;;;;5.57;1.67;;;;;;;;;;5049577;28;20207;-87
2022/06/18 14:00:10;;;;;;;8.32;1.90;;;;;;;;;;5054857;28;20180;-87
2022/06/18 14:03:23;;;;;;;8.38;1.80;;;;;;;;;;5056007;28;20176;-88
2022/06/18 14:06:27;;;;;;;1.63;1.35;;;;;;;;;;5035251;28;20223;-87
2022/06/18 14:09:44;;;;;;;3.63;1.70;;;;;;;;;;5059253;28;20198;-87
2022/06/18 14:12:53;;;;;;;9.65;1.80;;;;;;;;;;5064060;28;20192;-88
2022/06/18 14:16:04;;;;;;;11.38;2.10;;;;;;;;;;5049836;28;20215;-86
2022/06/18 14:19:29;;;;;;;5.65;1.90;;;;;;;;;;5100988;22;20304;-84
2022/06/18 14:22:33;;;;;;;7.30;2.10;;;;;;;;;;5052210;28;20188;-85
2022/06/18 14:25:54;;;;;;;9.23;1.95;;;;;;;;;;5078251;28;20195;-85
2022/06/18 14:29:00;;;;;;;7.70;2.22;;;;;;;;;;5063811;28;20192;-85
2022/06/18 14:32:24;;;;;;;8.43;1.90;;;;;;;;;;5044233;28;20180;-85
2022/06/18 14:35:50;;;;;;;7.32;2.05;;;;;;;;;;5051875;28;20176;-85
2022/06/18 14:38:58;;;;;;;12.55;2.03;;;;;;;;;;5073592;28;20180;-84
2022/06/18 14:42:02;;;;;;;6.88;1.90;;;;;;;;;;5051354;28;20172;-85
2022/06/18 14:45:15;;;;;;;7.63;2.17;;;;;;;;;;5044237;28;20183;-85
2022/06/18 14:48:44;;;;;;;10.13;2.47;;;;;;;;;;5044869;28;20192;-84
2022/06/18 14:52:19;;;;;;;6.20;2.00;;;;;;;;;;5022422;28;20189;-85
2022/06/18 14:55:45;;;;;;;13.25;2.20;;;;;;;;;;5028730;28;20191;-85
2022/06/18 14:58:50;;;;;;;7.88;2.17;;;;;;;;;;5049493;28;20180;-89
2022/06/18 15:02:02;;;;;;;11.15;2.50;;;;;;;;;;5056710;28;20199;-85
2022/06/18 15:05:17;;;;;;;14.20;2.53;;;;;;;;;;5056240;28;20188;-86
2022/06/18 15:08:22;;;;;;;14.68;2.33;;;;;;;;;;5031422;28;20172;-85
2022/06/18 15:11:29;;;;;;;20.08;2.85;;;;;;;;;;5054075;28;20180;-86
2022/06/18 15:14:39;;;;;;;8.85;2.00;;;;;;;;;;5011695;28;20205;-85
2022/06/18 15:17:58;;;;;;;8.75;2.00;;;;;;;;;;5015272;28;20177;-85
2022/06/18 15:24:18;;;;;;;9.57;2.47;;;;;;;;;;5073944;28;20176;-85
2022/06/18 15:27:26;;;;;;;9.90;2.10;;;;;;;;;;5054981;28;20180;-85
2022/06/18 15:30:42;;;;;;;11.30;2.17;;;;;;;;;;5059105;28;20563;-85
2022/06/18 15:33:50;;;;;;;6.45;2.05;;;;;;;;;;5078175;28;20220;-86
2022/06/18 15:37:02;;;;;;;10.73;2.22;;;;;;;;;;5016202;28;20192;-86
2022/06/18 15:40:07;;;;;;;7.60;2.13;;;;;;;;;;5028213;28;20224;-85
2022/06/18 15:43:20;;;;;;;12.68;2.72;;;;;;;;;;5017961;28;20193;-85
2022/06/18 15:46:26;;;;;;;11.85;2.22;;;;;;;;;;5033441;28;20513;-85
2022/06/18 15:49:35;;;;;;;10.30;2.25;;;;;;;;;;5056927;28;20216;-85
2022/06/18 15:52:40;;;;;;;10.00;2.40;;;;;;;;;;5048230;28;20192;-85
2022/06/18 15:55:45;;;;;;;10.73;2.47;;;;;;;;;;5049433;28;20173;-85
2022/06/18 15:58:51;;;;;;;6.00;2.10;;;;;;;;;;5037158;28;20181;-85
2022/06/18 16:01:56;;;;;;;9.90;2.15;;;;;;;;;;5061316;28;20187;-86
2022/06/18 16:05:00;;;;;;;6.47;1.88;;;;;;;;;;5056607;28;20172;-85
2022/06/18 16:08:07;;;;;;;10.40;2.53;;;;;;;;;;5053436;28;20184;-85
2022/06/18 16:11:22;;;;;;;8.85;1.85;;;;;;;;;;5029110;28;20181;-85
2022/06/18 16:14:26;;;;;;;11.88;2.75;;;;;;;;;;5034840;28;20220;-85
2022/06/18 16:17:33;;;;;;;7.70;2.05;;;;;;;;;;5058971;28;20180;-85
2022/06/18 16:20:37;;;;;;;10.23;2.47;;;;;;;;;;5039401;28;20227;-85
2022/06/18 16:23:49;;;;;;;7.40;1.90;;;;;;;;;;5056524;28;20192;-85
2022/06/18 16:26:56;;;;;;;11.55;2.33;;;;;;;;;;5047836;28;20184;-85
2022/06/18 16:30:21;;;;;;;9.82;2.65;;;;;;;;;;5062185;28;20554;-85
2022/06/18 16:33:28;;;;;;;10.18;2.25;;;;;;;;;;5056373;28;20188;-85
2022/06/18 16:36:34;;;;;;;7.55;1.83;;;;;;;;;;5066805;28;20195;-84
2022/06/18 16:39:47;;;;;;;9.48;2.13;;;;;;;;;;5027654;28;20217;-84
2022/06/18 16:42:51;;;;;;;13.40;2.65;;;;;;;;;;5028466;28;20177;-85
2022/06/18 16:45:55;;;;;;;16.63;2.60;;;;;;;;;;5026466;28;20181;-85
2022/06/18 16:48:59;;;;;;;12.88;2.90;;;;;;;;;;5026111;28;20547;-85
2022/06/18 16:52:16;;;;;;;10.88;2.33;;;;;;;;;;5038138;28;20181;-85
2022/06/18 16:55:26;;;;;;;13.70;2.35;;;;;;;;;;5014907;28;20215;-85
2022/06/18 16:58:31;;;;;;;15.80;3.17;;;;;;;;;;5026744;28;20173;-86
2022/06/18 17:01:35;;;;;;;16.15;2.40;;;;;;;;;;5063234;28;20188;-85
2022/06/18 17:04:39;;;;;;;8.65;2.67;;;;;;;;;;5046123;28;20192;-84
2022/06/18 17:07:44;;;;;;;13.05;2.80;;;;;;;;;;5045647;28;20199;-84
2022/06/18 17:10:52;;;;;;;15.18;3.08;;;;;;;;;;5063511;28;20217;-84
2022/06/18 17:13:57;;;;;;;12.93;2.60;;;;;;;;;;5063297;28;20171;-90
2022/06/18 17:17:01;;;;;;;12.77;2.33;;;;;;;;;;5050368;28;20188;-85
2022/06/18 17:20:05;;;;;;;11.38;2.67;;;;;;;;;;5045599;28;20220;-85
2022/06/18 17:23:11;;;;;;;18.98;3.22;;;;;;;;;;5032023;28;20200;-84
2022/06/18 17:33:01;;;;;;;17.35;5.75;;;;;;;;;;5044158;28;20692;-85
2022/06/18 17:36:10;;;;;;;70.78;32.08;;;;;;;;;;5031968;28;20711;-84
2022/06/18 17:39:14;;;;;;;63.80;10.88;;;;;;;;;;5023498;28;21104;-85
2022/06/18 17:42:19;;;;;;;27.02;10.85;;;;;;;;;;5022767;28;20195;-85
2022/06/18 17:45:23;;;;;;;435.15;392.95;;;;;;;;;;5032375;28;20194;-87
2022/06/18 17:48:28;;;;;;;55.75;37.45;;;;;;;;;;5011894;28;20539;-85
2022/06/18 17:51:32;;;;;;;181.95;110.35;;;;;;;;;;5046363;28;20201;-85
2022/06/18 17:54:38;;;;;;;101.28;73.93;;;;;;;;;;5053890;28;20699;-84
2022/06/18 17:57:42;;;;;;;37.97;13.43;;;;;;;;;;5054265;28;20191;-85
2022/06/18 18:00:49;;;;;;;36.50;11.10;;;;;;;;;;5031150;28;20226;-85
2022/06/18 18:03:57;;;;;;;61.10;32.40;;;;;;;;;;5052683;28;20199;-84
2022/06/18 18:07:04;;;;;;;119.68;91.07;;;;;;;;;;5057756;28;20187;-84
2022/06/18 18:10:10;;;;;;;106.15;81.43;;;;;;;;;;5047466;28;20587;-85
2022/06/18 18:13:15;;;;;;;16.75;5.35;;;;;;;;;;5030489;28;20570;-85
2022/06/18 18:16:19;;;;;;;11.75;3.08;;;;;;;;;;5047680;28;20238;-85
2022/06/18 18:19:24;;;;;;;10.55;2.42;;;;;;;;;;5059011;28;20230;-85
2022/06/18 18:22:28;;;;;;;16.77;3.13;;;;;;;;;;5050690;28;20182;-84
2022/06/18 18:25:33;;;;;;;15.20;2.90;;;;;;;;;;5055411;28;20199;-84
2022/06/18 18:28:37;;;;;;;18.35;2.72;;;;;;;;;;5042408;28;20182;-85
2022/06/18 18:31:42;;;;;;;18.20;3.17;;;;;;;;;;5032663;28;20185;-84
2022/06/18 18:34:46;;;;;;;9.98;2.90;;;;;;;;;;5045363;28;20212;-85
2022/06/18 18:37:51;;;;;;;15.98;2.92;;;;;;;;;;5048548;28;20562;-84
2022/06/18 18:40:55;;;;;;;11.57;2.97;;;;;;;;;;5029708;28;20221;-84
2022/06/18 18:43:59;;;;;;;15.90;3.03;;;;;;;;;;5042092;28;20212;-84
2022/06/18 18:47:06;;;;;;;19.83;3.22;;;;;;;;;;5038289;28;20184;-84
2022/06/18 18:50:11;;;;;;;9.15;3.03;;;;;;;;;;5058874;28;20555;-84
2022/06/18 18:53:15;;;;;;;13.25;2.88;;;;;;;;;;5073241;28;20183;-85
2022/06/18 18:56:19;;;;;;;14.70;3.42;;;;;;;;;;5054906;28;20213;-83
2022/06/18 18:59:24;;;;;;;15.93;3.30;;;;;;;;;;5045683;28;20220;-85
2022/06/18 19:02:28;;;;;;;9.23;2.63;;;;;;;;;;5042337;28;20667;-85
2022/06/18 19:05:32;;;;;;;15.38;2.92;;;;;;;;;;5033807;28;20196;-85
2022/06/18 19:08:36;;;;;;;14.17;3.00;;;;;;;;;;5058382;28;20190;-85
2022/06/18 19:15:04;;;;;;;10.37;2.53;;;;;;;;;;5039310;28;20219;-85
2022/06/18 19:18:12;;;;;;;15.37;3.07;;;;;;;;;;5010513;28;20175;-85
2022/06/18 19:21:23;;;;;;;14.80;3.07;;;;;;;;;;5021696;28;20174;-85
2022/06/18 19:24:28;;;;;;;12.73;2.80;;;;;;;;;;5040125;28;20564;-84
2022/06/18 19:27:33;;;;;;;13.50;2.87;;;;;;;;;;5026759;28;20184;-84
2022/06/18 19:30:37;;;;;;;10.57;2.23;;;;;;;;;;5012345;28;20554;-84
2022/06/18 19:33:41;;;;;;;9.90;2.27;;;;;;;;;;5012480;28;20555;-84